Time;durP1;ratioP1;P1;durP2;ratioP2;P2;SDS_P1;SDS_P2;PMS_P1;PMS_P2;Temp;Humidity;BMP_temperature;BMP_pressure;BME280_temperature;BME280_humidity;BME280_pressure;Samples;Min_cycle;Max_cycle;Signal;HPM_P1;HPM_P2
2024/01/11 00:01:10;;;;;;;0.30;0.30;;;;;;;-1.96;56.63;103440.31;5083289;28;20021;-79
2024/01/11 00:03:36;;;;;;;0.20;0.20;;;;;;;-1.98;56.37;103441.91;5088211;28;20111;-79
2024/01/11 00:06:04;;;;;;;0.20;0.20;;;;;;;-1.99;56.01;103440.09;5086358;28;20394;-78
2024/01/11 00:08:30;;;;;;;0.20;0.20;;;;;;;-1.99;56.18;103445.28;5086859;28;20028;-78
2024/01/11 00:10:56;;;;;;;0.20;0.20;;;;;;;-2.00;55.96;103443.47;5080642;28;20089;-76
2024/01/11 00:13:22;;;;;;;0.20;0.20;;;;;;;-2.01;56.13;103446.84;5079678;28;20039;-79
2024/01/11 00:15:48;;;;;;;0.20;0.20;;;;;;;-2.01;56.26;103451.16;5088241;28;20028;-78
2024/01/11 00:18:15;;;;;;;0.20;0.20;;;;;;;-2.03;56.47;103448.44;5082692;28;20028;-76
2024/01/11 00:20:41;;;;;;;0.20;0.20;;;;;;;-2.03;56.81;103452.72;5090923;28;20066;-76
2024/01/11 00:23:07;;;;;;;0.20;0.20;;;;;;;-2.03;56.59;103448.44;5097312;28;20024;-76
2024/01/11 00:25:33;;;;;;;0.20;0.20;;;;;;;-2.03;56.95;103443.25;5091043;28;20040;-78
2024/01/11 00:27:59;;;;;;;0.10;0.10;;;;;;;-2.02;57.46;103439.88;5082623;28;20036;-79
2024/01/11 00:30:26;;;;;;;0.30;0.30;;;;;;;-1.98;56.42;103441.00;5082087;28;20082;-78
2024/01/11 00:32:52;;;;;;;0.20;0.20;;;;;;;-1.98;56.92;103439.28;5084735;28;20032;-77
2024/01/11 00:35:18;;;;;;;0.20;0.20;;;;;;;-1.96;56.95;103436.81;5084341;28;20050;-78
2024/01/11 00:37:45;;;;;;;0.20;0.20;;;;;;;-1.95;56.79;103436.91;5089579;28;20880;-75
2024/01/11 00:40:11;;;;;;;0.10;0.10;;;;;;;-1.96;56.83;103436.81;5077633;28;20032;-78
2024/01/11 00:42:37;;;;;;;0.20;0.20;;;;;;;-1.98;57.48;103431.50;5079663;28;20030;-77
2024/01/11 00:45:04;;;;;;;0.20;0.20;;;;;;;-1.97;56.58;103433.31;5081371;28;20093;-76
2024/01/11 00:47:30;;;;;;;0.20;0.20;;;;;;;-1.97;56.94;103437.59;5082853;28;20028;-77
2024/01/11 00:49:56;;;;;;;1.17;1.17;;;;;;;-1.99;56.19;103436.59;5085487;28;20113;-78
2024/01/11 00:52:22;;;;;;;0.40;0.40;;;;;;;-2.01;56.88;103440.75;5083677;28;20036;-77
2024/01/11 00:54:48;;;;;;;0.20;0.20;;;;;;;-2.01;57.08;103441.66;5084997;28;20388;-77
2024/01/11 00:57:15;;;;;;;0.20;0.20;;;;;;;-2.06;57.00;103434.34;5089635;28;20121;-77
2024/01/11 00:59:41;;;;;;;0.22;0.22;;;;;;;-2.06;56.97;103437.81;5085682;28;20498;-78
2024/01/11 01:02:07;;;;;;;0.20;0.20;;;;;;;-2.09;56.73;103440.22;5086430;28;20102;-78
2024/01/11 01:04:37;;;;;;;0.20;0.20;;;;;;;-2.11;56.40;103444.38;5084909;28;20025;-76
2024/01/11 01:07:03;;;;;;;0.20;0.20;;;;;;;-2.14;57.23;103444.16;5087222;28;20066;-78
2024/01/11 01:09:30;;;;;;;0.20;0.20;;;;;;;-2.16;57.33;103440.53;5083752;28;20082;-78
2024/01/11 01:11:56;;;;;;;0.20;0.20;;;;;;;-2.16;56.77;103446.63;5078409;28;20046;-78
2024/01/11 01:14:22;;;;;;;0.30;0.30;;;;;;;-2.18;57.34;103448.22;5085711;28;20475;-78
2024/01/11 01:16:49;;;;;;;0.20;0.20;;;;;;;-2.20;57.64;103438.50;5092493;28;20102;-77
2024/01/11 01:19:15;;;;;;;0.20;0.20;;;;;;;-2.22;57.75;103446.16;5085598;28;20020;-77
2024/01/11 01:21:41;;;;;;;0.20;0.20;;;;;;;-2.22;57.17;103447.88;5079865;28;20536;-78
2024/01/11 01:24:07;;;;;;;0.20;0.20;;;;;;;-2.23;57.43;103453.84;5087891;28;20059;-78
2024/01/11 01:26:33;;;;;;;0.15;0.15;;;;;;;-2.24;57.63;103452.97;5084451;28;20037;-78
2024/01/11 01:29:00;;;;;;;0.20;0.20;;;;;;;-2.26;57.80;103459.72;5083280;28;20032;-78
2024/01/11 01:31:26;;;;;;;0.20;0.20;;;;;;;-2.29;57.93;103460.41;5087504;28;20456;-75
2024/01/11 01:33:53;;;;;;;0.20;0.20;;;;;;;-2.31;57.96;103459.38;5087430;28;20151;-77
2024/01/11 01:36:19;;;;;;;0.20;0.20;;;;;;;-2.33;57.76;103462.63;5084238;28;20028;-76
2024/01/11 01:38:45;;;;;;;0.30;0.30;;;;;;;-2.35;58.08;103457.34;5088980;28;20055;-75
2024/01/11 01:41:11;;;;;;;0.20;0.20;;;;;;;-2.36;58.32;103463.31;5100259;28;20059;-77
2024/01/11 01:43:37;;;;;;;0.20;0.20;;;;;;;-2.38;58.39;103464.91;5090686;28;20032;-78
2024/01/11 01:46:05;;;;;;;0.20;0.20;;;;;;;-2.38;57.95;103472.69;5089431;28;20034;-78
2024/01/11 01:48:32;;;;;;;0.20;0.20;;;;;;;-2.40;58.61;103469.06;5084708;28;20085;-78
2024/01/11 01:50:58;;;;;;;0.40;0.40;;;;;;;-2.41;58.49;103464.66;5074659;28;20024;-77
2024/01/11 01:53:28;;;;;;;0.20;0.20;;;;;;;-2.40;58.14;103474.28;5078794;28;20088;-77
2024/01/11 01:55:55;;;;;;;0.20;0.20;;;;;;;-2.45;58.72;103481.69;5090912;28;20025;-77
2024/01/11 01:58:21;;;;;;;0.20;0.20;;;;;;;-2.47;58.53;103479.78;5086364;28;20028;-78
2024/01/11 02:00:50;;;;;;;0.40;0.40;;;;;;;-2.47;58.50;103472.00;5087015;28;20072;-77
2024/01/11 02:03:17;;;;;;;7.88;1.98;;;;;;;-2.49;58.76;103477.06;5089035;28;20020;-77
2024/01/11 02:05:43;;;;;;;0.20;0.20;;;;;;;-2.51;59.06;103488.13;5087735;28;20530;-78
2024/01/11 02:08:15;;;;;;;0.20;0.20;;;;;;;-2.48;59.08;103489.28;5084894;28;20483;-78
2024/01/11 02:10:43;;;;;;;0.20;0.20;;;;;;;-2.49;58.63;103476.19;5088517;28;20543;-77
2024/01/11 02:13:09;;;;;;;0.20;0.20;;;;;;;-2.50;58.84;103479.56;5083330;28;20018;-77
2024/01/11 02:15:36;;;;;;;0.10;0.10;;;;;;;-2.52;59.09;103483.72;5087629;28;20522;-77
2024/01/11 02:18:02;;;;;;;0.20;0.20;;;;;;;-2.53;58.99;103485.44;5095285;28;20028;-78
2024/01/11 02:20:28;;;;;;;0.20;0.20;;;;;;;-2.55;59.45;103491.28;5087460;28;20027;-78
2024/01/11 02:23:01;;;;;;;0.20;0.20;;;;;;;-2.54;58.77;103487.88;5086537;28;20099;-77
2024/01/11 02:25:27;;;;;;;0.20;0.20;;;;;;;-2.55;58.50;103492.19;5088031;28;20103;-76
2024/01/11 02:27:53;;;;;;;0.15;0.15;;;;;;;-2.60;59.21;103489.22;5082633;28;20415;-77
2024/01/11 02:30:19;;;;;;;0.20;0.20;;;;;;;-2.63;59.81;103488.06;5082938;28;20039;-78
2024/01/11 02:32:48;;;;;;;0.20;0.20;;;;;;;-2.62;59.76;103492.50;5088738;28;20036;-78
2024/01/11 02:35:16;;;;;;;0.20;0.20;;;;;;;-2.65;59.94;103495.75;5087007;28;20514;-78
2024/01/11 02:37:43;;;;;;;0.20;0.20;;;;;;;-2.66;59.79;103493.94;5086724;28;20032;-78
2024/01/11 02:40:10;;;;;;;0.20;0.20;;;;;;;-2.67;59.88;103496.44;5087094;28;20032;-77
2024/01/11 02:42:36;;;;;;;0.60;0.60;;;;;;;-2.68;59.54;103495.53;5084851;28;20054;-78
2024/01/11 02:45:04;;;;;;;0.52;0.52;;;;;;;-2.70;59.82;103494.50;5083184;28;20036;-78
2024/01/11 02:47:30;;;;;;;0.20;0.20;;;;;;;-2.72;59.84;103495.16;5089379;28;20051;-78
2024/01/11 02:49:56;;;;;;;0.20;0.20;;;;;;;-2.74;59.65;103491.53;5083908;28;20047;-78
2024/01/11 02:52:24;;;;;;;0.40;0.40;;;;;;;-2.73;59.98;103496.84;5080473;28;20024;-78
2024/01/11 02:54:50;;;;;;;0.20;0.20;;;;;;;-2.74;59.37;103495.06;5093784;28;20024;-76
2024/01/11 02:57:16;;;;;;;0.20;0.20;;;;;;;-2.77;59.84;103494.81;5102596;28;20049;-76
2024/01/11 02:59:43;;;;;;;0.25;0.25;;;;;;;-2.76;59.65;103496.63;5092207;28;20042;-77
2024/01/11 03:02:10;;;;;;;0.20;0.20;;;;;;;-2.79;59.86;103496.38;5084665;28;20036;-77
2024/01/11 03:04:36;;;;;;;0.30;0.30;;;;;;;-2.78;59.89;103493.91;5084065;28;20400;-78
2024/01/11 03:07:02;;;;;;;3.63;3.40;;;;;;;-2.77;59.65;103489.63;5084058;28;20027;-78
2024/01/11 03:09:28;;;;;;;0.20;0.20;;;;;;;-2.81;59.76;103482.38;5083474;28;20040;-77
2024/01/11 03:11:54;;;;;;;0.20;0.20;;;;;;;-2.83;59.90;103470.97;5085855;28;20029;-78
2024/01/11 03:14:21;;;;;;;0.20;0.20;;;;;;;-2.83;59.83;103483.94;5084316;28;20064;-78
2024/01/11 03:16:47;;;;;;;0.60;0.60;;;;;;;-2.84;60.19;103487.31;5082099;28;20036;-77
2024/01/11 03:19:13;;;;;;;0.20;0.20;;;;;;;-2.83;60.18;103481.34;5087567;28;20039;-78
2024/01/11 03:21:44;;;;;;;5.93;2.95;;;;;;;-2.81;60.38;103472.91;5085738;28;20062;-77
2024/01/11 03:24:10;;;;;;;1.00;1.00;;;;;;;-2.84;59.66;103471.75;5088836;28;20024;-78
2024/01/11 03:26:36;;;;;;;0.20;0.20;;;;;;;-2.86;60.09;103476.84;5086502;28;20027;-78
2024/01/11 03:29:02;;;;;;;0.20;0.20;;;;;;;-2.86;60.22;103483.72;5089554;28;20032;-79
2024/01/11 03:31:29;;;;;;;0.20;0.20;;;;;;;-2.85;60.67;103475.16;5086693;28;20016;-78
2024/01/11 03:33:55;;;;;;;0.35;0.35;;;;;;;-2.84;59.89;103484.72;5082869;28;20573;-78
2024/01/11 03:36:24;;;;;;;0.20;0.20;;;;;;;-2.85;60.75;103491.63;5085174;28;20016;-78
2024/01/11 03:38:50;;;;;;;0.17;0.17;;;;;;;-2.87;61.10;103498.38;5082278;28;20036;-77
2024/01/11 03:41:17;;;;;;;0.20;0.20;;;;;;;-2.87;61.18;103502.66;5082459;28;20029;-78
2024/01/11 03:43:43;;;;;;;0.20;0.20;;;;;;;-2.87;60.96;103502.66;5084445;28;20028;-78
2024/01/11 03:46:09;;;;;;;0.20;0.20;;;;;;;-2.89;61.48;103509.41;5085237;28;20020;-78
2024/01/11 03:48:35;;;;;;;0.20;0.20;;;;;;;-2.89;61.09;103509.41;5084393;28;20035;-78
2024/01/11 03:51:02;;;;;;;0.40;0.40;;;;;;;-2.89;61.00;103506.81;5091011;28;20032;-78
2024/01/11 03:53:28;;;;;;;0.20;0.20;;;;;;;-2.88;61.25;103511.22;5088805;28;20032;-78
2024/01/11 03:55:55;;;;;;;0.20;0.20;;;;;;;-2.89;61.19;103504.22;5091310;28;20033;-78
2024/01/11 03:58:21;;;;;;;0.20;0.20;;;;;;;-2.89;61.02;103499.97;5072736;28;20028;-78
2024/01/11 04:00:47;;;;;;;0.20;0.20;;;;;;;-2.90;61.08;103497.22;5073486;28;20411;-79
2024/01/11 04:03:13;;;;;;;0.20;0.20;;;;;;;-2.89;60.82;103510.34;5076208;28;20028;-79
2024/01/11 04:05:39;;;;;;;0.20;0.20;;;;;;;-2.91;60.81;103506.72;5095038;28;20016;-79
2024/01/11 04:08:07;;;;;;;0.20;0.20;;;;;;;-2.89;61.06;103499.03;5097229;28;20130;-78
2024/01/11 04:10:33;;;;;;;0.20;0.20;;;;;;;-2.93;61.19;103503.09;5093149;28;20024;-78
2024/01/11 04:12:59;;;;;;;1.05;1.05;;;;;;;-2.93;60.99;103504.00;5111300;28;20046;-78
2024/01/11 04:15:26;;;;;;;0.20;0.20;;;;;;;-2.95;60.94;103500.38;5099446;28;20085;-79
2024/01/11 04:17:52;;;;;;;0.10;0.10;;;;;;;-2.97;60.97;103501.94;5097635;28;20035;-78
2024/01/11 04:20:18;;;;;;;1.30;1.27;;;;;;;-2.99;60.87;103493.16;5094354;28;20036;-78
2024/01/11 04:22:44;;;;;;;0.20;0.20;;;;;;;-3.03;61.28;103506.63;5093519;28;20067;-78
2024/01/11 04:25:11;;;;;;;0.20;0.20;;;;;;;-3.03;61.01;103517.00;5100835;28;20517;-79
2024/01/11 04:27:37;;;;;;;0.20;0.20;;;;;;;-3.03;61.38;103521.31;5098231;28;20035;-78
2024/01/11 04:30:04;;;;;;;0.20;0.20;;;;;;;-3.03;61.48;103527.38;5099172;28;20565;-78
2024/01/11 04:32:30;;;;;;;2.55;1.05;;;;;;;-3.03;61.77;103527.38;5098476;28;20034;-79
2024/01/11 04:34:56;;;;;;;0.20;0.20;;;;;;;-3.02;62.00;103528.31;5094140;28;20028;-79
2024/01/11 04:37:22;;;;;;;0.20;0.20;;;;;;;-2.99;61.46;103533.72;5096076;28;20027;-78
2024/01/11 04:39:48;;;;;;;0.17;0.17;;;;;;;-2.99;61.60;103533.72;5097609;28;20028;-78
2024/01/11 04:42:15;;;;;;;0.88;0.88;;;;;;;-3.00;61.39;103543.22;5090857;28;20032;-78
2024/01/11 04:44:41;;;;;;;0.20;0.20;;;;;;;-2.98;61.27;103532.94;5098212;28;20035;-78
2024/01/11 04:47:08;;;;;;;0.20;0.20;;;;;;;-3.01;61.42;103536.22;5098175;28;20020;-78
2024/01/11 04:49:34;;;;;;;0.20;0.20;;;;;;;-3.01;61.56;103524.94;5097751;28;20033;-78
2024/01/11 04:52:00;;;;;;;0.40;0.40;;;;;;;-3.03;61.41;103522.19;5090140;28;20044;-78
2024/01/11 04:54:27;;;;;;;0.15;0.15;;;;;;;-3.03;61.79;103542.06;5094300;28;20126;-78
2024/01/11 04:56:53;;;;;;;0.20;0.20;;;;;;;-3.03;61.31;103548.13;5095763;28;20055;-77
2024/01/11 04:59:19;;;;;;;0.20;0.20;;;;;;;-3.05;61.58;103549.72;5093479;28;20511;-78
2024/01/11 05:01:46;;;;;;;0.40;0.40;;;;;;;-3.04;61.58;103543.75;5093180;28;20036;-77
2024/01/11 05:04:12;;;;;;;1.50;1.40;;;;;;;-3.06;61.79;103558.28;5093022;28;20032;-77
2024/01/11 05:06:38;;;;;;;0.20;0.20;;;;;;;-3.05;61.53;103556.59;5095028;28;20107;-77
2024/01/11 05:09:04;;;;;;;0.20;0.20;;;;;;;-3.08;61.84;103552.06;5085094;28;20034;-77
2024/01/11 05:11:31;;;;;;;0.20;0.20;;;;;;;-3.08;61.54;103546.88;5095798;28;20059;-78
2024/01/11 05:13:57;;;;;;;0.20;0.20;;;;;;;-3.10;61.46;103548.47;5093872;28;20106;-78
2024/01/11 05:16:26;;;;;;;2.05;1.98;;;;;;;-3.09;61.71;103556.34;5097558;28;20097;-78
2024/01/11 05:18:57;;;;;;;0.20;0.20;;;;;;;-3.11;61.87;103549.25;5085529;28;20083;-78
2024/01/11 05:21:24;;;;;;;0.68;0.68;;;;;;;-3.15;62.21;103544.59;5093272;28;20116;-78
2024/01/11 05:23:51;;;;;;;0.20;0.20;;;;;;;-3.16;61.54;103535.00;5095118;28;20032;-78
2024/01/11 05:26:18;;;;;;;0.20;0.20;;;;;;;-3.18;61.98;103537.44;5095662;28;20107;-78
2024/01/11 05:28:44;;;;;;;0.20;0.20;;;;;;;-3.17;61.85;103543.56;5100301;28;20028;-78
2024/01/11 05:31:14;;;;;;;0.20;0.20;;;;;;;-3.15;61.81;103560.16;5115841;28;20042;-78
2024/01/11 05:33:40;;;;;;;0.20;0.20;;;;;;;-3.15;62.08;103547.19;5094526;28;20032;-78
2024/01/11 05:36:07;;;;;;;0.22;0.22;;;;;;;-3.16;62.13;103551.47;5086110;28;20032;-78
2024/01/11 05:38:34;;;;;;;0.15;0.15;;;;;;;-3.18;63.18;103559.91;5087912;28;20028;-78
2024/01/11 05:41:00;;;;;;;0.20;0.20;;;;;;;-3.17;62.40;103556.53;5091962;28;20024;-78
2024/01/11 05:43:26;;;;;;;7.43;1.50;;;;;;;-3.17;62.19;103560.00;5100655;28;20039;-78
2024/01/11 05:45:53;;;;;;;0.20;0.20;;;;;;;-3.19;62.50;103553.81;5090013;28;20039;-79
2024/01/11 05:48:19;;;;;;;0.20;0.20;;;;;;;-3.17;61.82;103556.53;5099611;28;20031;-77
2024/01/11 05:50:45;;;;;;;0.20;0.20;;;;;;;-3.18;62.00;103559.91;5091547;28;20050;-78
2024/01/11 05:53:13;;;;;;;0.45;0.45;;;;;;;-3.17;62.40;103559.13;5092559;28;20024;-77
2024/01/11 05:55:39;;;;;;;0.20;0.20;;;;;;;-3.17;61.82;103564.31;5094652;28;20016;-78
2024/01/11 05:58:06;;;;;;;0.20;0.20;;;;;;;-3.22;62.29;103560.44;5095488;28;20092;-78
2024/01/11 06:00:32;;;;;;;4.28;1.08;;;;;;;-3.22;62.03;103560.44;5098486;28;20032;-80
2024/01/11 06:02:58;;;;;;;0.20;0.20;;;;;;;-3.25;62.07;103551.63;5087931;28;20032;-78
2024/01/11 06:05:25;;;;;;;0.20;0.20;;;;;;;-3.25;61.80;103545.53;5098473;28;20073;-78
2024/01/11 06:07:51;;;;;;;0.43;0.43;;;;;;;-3.28;62.00;103548.81;5095650;28;20032;-78
2024/01/11 06:10:17;;;;;;;0.20;0.20;;;;;;;-3.26;61.68;103557.59;5094860;28;20028;-78
2024/01/11 06:12:43;;;;;;;0.20;0.20;;;;;;;-3.23;62.26;103569.00;5092917;28;20027;-78
2024/01/11 06:15:10;;;;;;;0.17;0.17;;;;;;;-3.22;62.37;103560.44;5096023;28;20102;-79
2024/01/11 06:17:36;;;;;;;0.45;0.45;;;;;;;-3.23;62.65;103548.25;5097034;28;20033;-79
2024/01/11 06:20:03;;;;;;;2.88;1.92;;;;;;;-3.23;61.95;103543.06;5089141;28;20078;-79
2024/01/11 06:22:30;;;;;;;0.20;0.20;;;;;;;-3.28;62.39;103556.59;5093727;28;20039;-78
2024/01/11 06:24:57;;;;;;;0.20;0.20;;;;;;;-3.27;62.03;103567.84;5088764;28;20032;-79
2024/01/11 06:27:23;;;;;;;0.10;0.10;;;;;;;-3.26;62.08;103569.66;5087437;28;20032;-79
2024/01/11 06:29:49;;;;;;;0.20;0.20;;;;;;;-3.26;62.47;103586.13;5098407;28;20095;-79
2024/01/11 06:32:15;;;;;;;0.20;0.20;;;;;;;-3.22;62.65;103592.44;5097106;28;20132;-78
2024/01/11 06:34:45;;;;;;;0.20;0.20;;;;;;;-3.18;63.07;103596.19;5099735;28;20062;-79
2024/01/11 06:37:12;;;;;;;0.20;0.20;;;;;;;-3.17;62.89;103598.03;5094695;28;20024;-80
2024/01/11 06:39:38;;;;;;;0.20;0.20;;;;;;;-3.15;62.50;103609.44;5080479;28;20028;-77
2024/01/11 06:42:05;;;;;;;0.10;0.10;;;;;;;-3.15;62.75;103606.84;5075388;28;20032;-78
2024/01/11 06:44:31;;;;;;;0.20;0.20;;;;;;;-3.15;63.05;103602.53;5090301;28;20643;-79
2024/01/11 06:46:57;;;;;;;0.20;0.20;;;;;;;-3.14;62.87;103617.34;5103587;28;20024;-78
2024/01/11 06:49:23;;;;;;;0.20;0.20;;;;;;;-3.11;63.23;103616.69;5108601;28;20052;-78
2024/01/11 06:51:49;;;;;;;1.35;1.35;;;;;;;-3.11;63.79;103632.22;5083575;28;20383;-78
2024/01/11 06:54:15;;;;;;;0.50;0.50;;;;;;;-3.04;63.17;103639.75;5088075;28;20111;-78
2024/01/11 06:56:42;;;;;;;0.20;0.20;;;;;;;-3.05;63.47;103632.72;5093351;28;20097;-79
2024/01/11 06:59:08;;;;;;;0.20;0.20;;;;;;;-3.01;62.94;103634.78;5087845;28;20054;-78
2024/01/11 07:01:34;;;;;;;0.20;0.20;;;;;;;-2.97;63.25;103641.13;5086337;28;20040;-77
2024/01/11 07:04:00;;;;;;;0.10;0.10;;;;;;;-2.97;63.75;103631.66;5086965;28;20106;-78
2024/01/11 07:06:26;;;;;;;0.50;0.50;;;;;;;-2.91;63.08;103630.34;5080398;28;20184;-77
2024/01/11 07:08:52;;;;;;;0.20;0.20;;;;;;;-2.91;63.66;103632.94;5080787;28;20047;-77
2024/01/11 07:11:19;;;;;;;0.30;0.30;;;;;;;-2.91;63.44;103632.94;5081773;28;20024;-76
2024/01/11 07:13:45;;;;;;;0.65;0.65;;;;;;;-2.87;63.50;103630.69;5092970;28;20622;-76
2024/01/11 07:16:11;;;;;;;0.20;0.20;;;;;;;-2.83;63.68;103635.38;5094312;28;20024;-76
2024/01/11 07:18:37;;;;;;;0.20;0.20;;;;;;;-2.80;63.41;103634.72;5088702;28;20028;-77
2024/01/11 07:21:03;;;;;;;0.20;0.20;;;;;;;-2.80;63.02;103629.53;5084945;28;20109;-79
2024/01/11 07:23:30;;;;;;;0.68;0.68;;;;;;;-2.80;63.45;103625.22;5091462;28;20020;-75
2024/01/11 07:25:56;;;;;;;0.20;0.20;;;;;;;-2.79;63.64;103634.81;5091840;28;20020;-76
2024/01/11 07:28:25;;;;;;;0.20;0.20;;;;;;;-2.77;63.57;103640.13;5087857;28;20067;-77
2024/01/11 07:30:53;;;;;;;0.20;0.20;;;;;;;-2.76;63.33;103641.94;5090109;28;20037;-76
2024/01/11 07:33:20;;;;;;;0.20;0.20;;;;;;;-2.74;63.40;103635.19;5085457;28;20024;-77
2024/01/11 07:35:47;;;;;;;0.20;0.20;;;;;;;-2.74;63.44;103629.09;5080041;28;20451;-75
2024/01/11 07:38:13;;;;;;;8.68;2.28;;;;;;;-2.73;63.42;103625.72;5090461;28;20057;-77
2024/01/11 07:40:40;;;;;;;0.20;0.20;;;;;;;-2.74;63.46;103624.81;5081271;28;20523;-76
2024/01/11 07:43:06;;;;;;;0.20;0.20;;;;;;;-2.73;63.13;103617.94;5078184;28;20039;-76
2024/01/11 07:45:32;;;;;;;0.20;0.20;;;;;;;-2.77;63.95;103611.59;5088179;28;20118;-77
2024/01/11 07:47:59;;;;;;;0.20;0.20;;;;;;;-2.76;63.47;103611.69;5092761;28;20032;-77
2024/01/11 07:50:25;;;;;;;0.20;0.20;;;;;;;-2.77;63.26;103601.19;5089334;28;20482;-75
2024/01/11 07:52:51;;;;;;;0.20;0.20;;;;;;;-2.80;63.64;103594.09;5085490;28;20510;-76
2024/01/11 07:55:18;;;;;;;0.10;0.10;;;;;;;-2.81;63.25;103587.06;5094805;28;20040;-79
2024/01/11 07:57:44;;;;;;;0.20;0.20;;;;;;;-2.81;62.63;103593.97;5095515;28;20027;-79
2024/01/11 08:00:10;;;;;;;0.20;0.20;;;;;;;-2.83;62.50;103601.63;5096161;28;20047;-77
2024/01/11 08:02:37;;;;;;;0.20;0.20;;;;;;;-2.85;62.92;103610.97;5098678;28;20467;-77
2024/01/11 08:05:04;;;;;;;4.18;1.85;;;;;;;-2.84;62.84;103611.88;5117868;28;20055;-76
2024/01/11 08:07:31;;;;;;;0.20;0.20;;;;;;;-2.81;63.26;103617.31;5115237;28;20118;-79
2024/01/11 08:09:57;;;;;;;0.10;0.10;;;;;;;-2.79;62.89;103626.13;5094712;28;20024;-79
2024/01/11 08:12:23;;;;;;;0.95;0.95;;;;;;;-2.77;63.46;103632.34;5092828;28;20020;-79
2024/01/11 08:14:49;;;;;;;0.20;0.20;;;;;;;-2.73;63.31;103634.38;5095005;28;20032;-79
2024/01/11 08:17:16;;;;;;;0.20;0.20;;;;;;;-2.70;63.66;103632.06;5096698;28;20084;-78
2024/01/11 08:19:43;;;;;;;0.20;0.20;;;;;;;-2.64;62.98;103632.53;5098333;28;20076;-78
2024/01/11 08:22:10;;;;;;;0.20;0.20;;;;;;;-2.62;63.73;103633.59;5094207;28;20039;-78
2024/01/11 08:24:36;;;;;;;0.20;0.20;;;;;;;-2.55;63.53;103631.47;5101041;28;20024;-79
2024/01/11 08:27:04;;;;;;;0.10;0.10;;;;;;;-2.51;63.43;103628.31;5089911;28;20085;-77
2024/01/11 08:29:30;;;;;;;0.20;0.20;;;;;;;-2.46;63.82;103627.00;5100622;28;20032;-78
2024/01/11 08:31:56;;;;;;;0.20;0.20;;;;;;;-2.48;64.15;103624.28;5090862;28;20509;-78
2024/01/11 08:34:23;;;;;;;0.20;0.20;;;;;;;-2.40;64.18;103622.28;5085502;28;20034;-78
2024/01/11 08:36:49;;;;;;;2.55;2.40;;;;;;;-2.32;64.26;103623.78;5096040;28;20093;-78
2024/01/11 08:39:16;;;;;;;0.57;0.57;;;;;;;-2.26;64.20;103622.44;5099238;28;20055;-77
2024/01/11 08:41:42;;;;;;;0.25;0.25;;;;;;;-2.19;63.85;103627.34;5091864;28;20036;-78
2024/01/11 08:44:09;;;;;;;1.67;1.58;;;;;;;-2.16;63.73;103628.44;5087212;28;20029;-77
2024/01/11 08:46:35;;;;;;;0.35;0.35;;;;;;;-2.12;63.67;103632.19;5085553;28;20541;-78
2024/01/11 08:49:03;;;;;;;0.85;0.85;;;;;;;-2.05;63.65;103629.28;5084906;28;20028;-77
2024/01/11 08:51:29;;;;;;;0.85;0.85;;;;;;;-2.02;63.75;103632.13;5087734;28;20560;-76
2024/01/11 08:53:56;;;;;;;0.40;0.40;;;;;;;-2.00;63.48;103637.44;5085851;28;20419;-77
2024/01/11 08:56:22;;;;;;;2.05;1.95;;;;;;;-1.96;63.37;103642.09;5087380;28;20090;-76
2024/01/11 08:58:48;;;;;;;1.05;1.05;;;;;;;-1.86;63.18;103644.59;5086539;28;20759;-77
2024/01/11 09:01:15;;;;;;;3.35;3.13;;;;;;;-1.83;63.01;103646.53;5084560;28;20024;-78
2024/01/11 09:03:41;;;;;;;0.10;0.10;;;;;;;-1.75;63.00;103653.22;5088836;28;20085;-77
2024/01/11 09:06:08;;;;;;;0.20;0.20;;;;;;;-1.69;62.43;103668.38;5087373;28;20080;-77
2024/01/11 09:08:34;;;;;;;0.20;0.20;;;;;;;-1.61;62.26;103669.84;5087416;28;20059;-78
2024/01/11 09:11:01;;;;;;;0.20;0.20;;;;;;;-1.56;62.32;103665.00;5083844;28;20128;-76
2024/01/11 09:13:28;;;;;;;0.60;0.60;;;;;;;-1.50;62.07;103668.06;5089104;28;20457;-77
2024/01/11 09:15:54;;;;;;;0.20;0.20;;;;;;;-1.43;61.92;103665.16;5085506;28;20039;-77
2024/01/11 09:18:21;;;;;;;0.20;0.20;;;;;;;-1.39;61.53;103674.09;5097998;28;20083;-75
2024/01/11 09:20:48;;;;;;;0.20;0.20;;;;;;;-1.35;61.82;103687.41;5094099;28;20032;-76
2024/01/11 09:23:16;;;;;;;4.68;3.10;;;;;;;-1.26;61.22;103691.50;5092911;28;20025;-76
2024/01/11 09:25:42;;;;;;;0.20;0.20;;;;;;;-1.19;61.62;103697.25;5098736;28;20087;-76
2024/01/11 09:28:08;;;;;;;0.38;0.38;;;;;;;-1.11;61.45;103704.75;5097175;28;20111;-77
2024/01/11 09:30:35;;;;;;;0.20;0.20;;;;;;;-1.01;61.41;103705.56;5087484;28;20031;-77
2024/01/11 09:33:01;;;;;;;2.83;1.98;;;;;;;-0.95;60.99;103712.00;5093527;28;20024;-77
2024/01/11 09:35:28;;;;;;;0.63;0.63;;;;;;;-0.85;60.64;103707.59;5080899;28;20032;-76
2024/01/11 09:37:54;;;;;;;0.20;0.20;;;;;;;-0.75;61.15;103698.72;5111947;28;20047;-77
2024/01/11 09:40:20;;;;;;;1.25;1.20;;;;;;;-0.74;60.77;103705.75;5113851;28;20032;-77
2024/01/11 09:42:46;;;;;;;0.20;0.20;;;;;;;-0.60;60.67;103708.44;5077942;28;20086;-77
2024/01/11 09:45:16;;;;;;;5.57;1.23;;;;;;;-0.52;60.50;103713.41;5087055;28;20035;-78
2024/01/11 09:47:45;;;;;;;0.28;0.28;;;;;;;-0.31;60.83;103710.56;5101485;28;20145;-82
2024/01/11 09:50:17;;;;;;;0.20;0.20;;;;;;;-0.12;60.64;103710.13;5088248;28;20032;-81
2024/01/11 09:52:48;;;;;;;0.40;0.40;;;;;;;0.09;61.02;103715.06;5094100;28;20043;-80
2024/01/11 09:55:16;;;;;;;0.20;0.20;;;;;;;0.24;60.80;103726.53;5099338;28;20020;-79
2024/01/11 09:57:45;;;;;;;0.10;0.10;;;;;;;0.39;60.96;103716.25;5099299;28;20040;-80
2024/01/11 10:00:18;;;;;;;0.20;0.20;;;;;;;0.53;61.10;103719.78;5101264;28;20399;-82
2024/01/11 10:02:45;;;;;;;;;;;;;;;0.82;60.59;103713.00;5096379;28;20037;-80
2024/01/11 10:05:13;;;;;;;1.88;1.10;;;;;;;0.82;60.91;103715.63;5091387;28;19915;-81
2024/01/11 10:07:41;;;;;;;0.20;0.20;;;;;;;0.90;61.12;103722.28;5096364;28;20047;-79
2024/01/11 10:10:08;;;;;;;0.20;0.20;;;;;;;1.01;60.93;103719.47;5094166;28;20507;-79
2024/01/11 10:12:36;;;;;;;0.63;0.63;;;;;;;1.14;60.91;103727.31;5096882;28;20106;-80
2024/01/11 10:15:09;;;;;;;0.40;0.40;;;;;;;1.24;60.86;103724.47;5089213;28;20031;-78
2024/01/11 10:17:40;;;;;;;0.20;0.20;;;;;;;1.29;60.65;103712.59;5093910;28;20035;-79
2024/01/11 10:20:10;;;;;;;0.20;0.20;;;;;;;1.36;60.69;103713.00;5091022;28;20593;-79
2024/01/11 10:22:36;;;;;;;0.20;0.20;;;;;;;1.45;60.65;103708.38;5093244;28;20032;-80
2024/01/11 10:27:46;;;;;;;0.20;0.20;;;;;;;1.59;60.71;103707.53;5101752;27;20402;-79
2024/01/11 10:30:16;;;;;;;0.30;0.30;;;;;;;1.64;60.62;103699.09;5102065;28;20068;-79
2024/01/11 10:32:43;;;;;;;0.17;0.17;;;;;;;1.70;60.61;103700.38;5111986;28;20028;-80
2024/01/11 10:35:10;;;;;;;0.13;0.13;;;;;;;1.76;60.63;103702.50;5108466;28;20032;-80
2024/01/11 10:37:38;;;;;;;0.20;0.20;;;;;;;1.85;60.73;103692.59;5106468;28;20088;-79
2024/01/11 10:40:12;;;;;;;0.52;0.52;;;;;;;1.93;60.62;103703.53;5128124;28;20033;-79
2024/01/11 10:42:49;;;;;;;0.10;0.10;;;;;;;2.05;60.60;103703.38;5129644;28;20047;-80
2024/01/11 10:45:18;;;;;;;0.77;0.77;;;;;;;2.06;60.54;103708.69;5117214;28;20103;-80
2024/01/11 10:47:53;;;;;;;0.10;0.10;;;;;;;2.14;60.55;103710.91;5093429;28;20028;-80
2024/01/11 10:50:20;;;;;;;0.20;0.20;;;;;;;2.16;60.20;103712.78;5094367;28;20059;-80
2024/01/11 10:53:14;;;;;;;0.10;0.10;;;;;;;2.28;60.46;103706.50;5094386;28;20402;-80
2024/01/11 10:55:42;;;;;;;0.52;0.52;;;;;;;2.31;60.21;103717.16;5100908;28;20450;-80
2024/01/11 10:58:10;;;;;;;2.67;2.55;;;;;;;2.35;60.37;103714.81;5090441;28;20024;-80
2024/01/11 11:00:37;;;;;;;8.20;1.65;;;;;;;2.36;59.98;103716.59;5099824;28;20020;-80
2024/01/11 11:03:06;;;;;;;1.10;1.10;;;;;;;2.43;59.95;103723.13;5098460;28;20075;-80
2024/01/11 11:05:35;;;;;;;0.10;0.10;;;;;;;2.48;59.98;103726.94;5095503;28;20020;-80
2024/01/11 11:08:03;;;;;;;0.10;0.10;;;;;;;2.50;60.01;103735.75;5092995;28;20592;-80
2024/01/11 11:10:32;;;;;;;0.20;0.20;;;;;;;2.58;60.12;103737.13;5093985;28;20032;-80
2024/01/11 11:12:59;;;;;;;0.17;0.17;;;;;;;2.65;60.25;103742.72;5096556;28;20024;-79
2024/01/11 11:15:28;;;;;;;0.20;0.20;;;;;;;2.69;59.95;103742.09;5097510;28;20059;-80
2024/01/11 11:17:55;;;;;;;0.95;0.95;;;;;;;2.74;60.13;103745.88;5095681;28;20027;-80
2024/01/11 11:20:21;;;;;;;0.10;0.10;;;;;;;2.76;60.09;103749.50;5092107;28;20026;-80
2024/01/11 11:23:05;;;;;;;0.15;0.15;;;;;;;2.79;59.71;103748.78;5092639;28;20040;-80
2024/01/11 11:25:31;;;;;;;0.22;0.22;;;;;;;2.84;60.32;103744.72;5091404;28;20050;-80
2024/01/11 11:28:03;;;;;;;2.13;1.33;;;;;;;2.90;60.11;103745.06;5092102;28;21011;-79